sensor_id;sensor_type;location;lat;lon;timestamp;P1;durP1;ratioP1;P2;durP2;ratioP2
25391;SDS011;13329;48.402;11.718;2023-04-09T00:01:05;21.10;;;7.50;;
25391;SDS011;13329;48.402;11.718;2023-04-09T00:03:30;14.18;;;6.63;;
25391;SDS011;13329;48.402;11.718;2023-04-09T00:05:56;14.32;;;6.38;;
25391;SDS011;13329;48.402;11.718;2023-04-09T00:08:21;18.43;;;8.50;;
25391;SDS011;13329;48.402;11.718;2023-04-09T00:10:47;17.40;;;7.60;;
25391;SDS011;13329;48.402;11.718;2023-04-09T00:13:13;13.77;;;7.13;;
25391;SDS011;13329;48.402;11.718;2023-04-09T00:15:38;16.53;;;7.43;;
25391;SDS011;13329;48.402;11.718;2023-04-09T00:18:04;18.58;;;8.15;;
25391;SDS011;13329;48.402;11.718;2023-04-09T00:20:29;22.57;;;9.10;;
25391;SDS011;13329;48.402;11.718;2023-04-09T00:22:55;20.52;;;8.85;;
25391;SDS011;13329;48.402;11.718;2023-04-09T00:25:20;16.17;;;7.43;;
25391;SDS011;13329;48.402;11.718;2023-04-09T00:27:45;16.13;;;7.83;;
25391;SDS011;13329;48.402;11.718;2023-04-09T00:30:10;18.48;;;7.85;;
25391;SDS011;13329;48.402;11.718;2023-04-09T00:32:36;21.33;;;7.80;;
25391;SDS011;13329;48.402;11.718;2023-04-09T00:35:01;17.33;;;8.48;;
25391;SDS011;13329;48.402;11.718;2023-04-09T00:37:26;19.77;;;8.47;;
25391;SDS011;13329;48.402;11.718;2023-04-09T00:39:51;22.67;;;9.45;;
25391;SDS011;13329;48.402;11.718;2023-04-09T00:42:16;21.50;;;9.53;;
25391;SDS011;13329;48.402;11.718;2023-04-09T00:44:42;18.90;;;9.13;;
25391;SDS011;13329;48.402;11.718;2023-04-09T00:47:07;17.37;;;8.00;;
25391;SDS011;13329;48.402;11.718;2023-04-09T00:49:32;19.83;;;8.97;;
25391;SDS011;13329;48.402;11.718;2023-04-09T00:51:57;26.95;;;10.95;;
25391;SDS011;13329;48.402;11.718;2023-04-09T00:54:22;22.95;;;10.68;;
25391;SDS011;13329;48.402;11.718;2023-04-09T00:56:48;19.23;;;9.30;;
25391;SDS011;13329;48.402;11.718;2023-04-09T00:59:13;18.73;;;8.70;;
25391;SDS011;13329;48.402;11.718;2023-04-09T01:01:38;21.05;;;9.00;;
25391;SDS011;13329;48.402;11.718;2023-04-09T01:04:03;20.13;;;9.43;;
25391;SDS011;13329;48.402;11.718;2023-04-09T01:06:36;25.95;;;10.27;;
25391;SDS011;13329;48.402;11.718;2023-04-09T01:14:26;22.83;;;9.65;;
25391;SDS011;13329;48.402;11.718;2023-04-09T01:16:54;18.42;;;9.25;;
25391;SDS011;13329;48.402;11.718;2023-04-09T01:21:45;21.55;;;9.50;;
25391;SDS011;13329;48.402;11.718;2023-04-09T01:26:57;20.83;;;9.13;;
25391;SDS011;13329;48.402;11.718;2023-04-09T01:29:24;20.65;;;7.97;;
25391;SDS011;13329;48.402;11.718;2023-04-09T01:31:49;19.15;;;8.35;;
25391;SDS011;13329;48.402;11.718;2023-04-09T01:34:15;20.90;;;8.88;;
25391;SDS011;13329;48.402;11.718;2023-04-09T01:36:42;19.85;;;9.00;;
25391;SDS011;13329;48.402;11.718;2023-04-09T01:39:09;20.70;;;9.10;;
25391;SDS011;13329;48.402;11.718;2023-04-09T01:41:34;21.40;;;8.93;;
25391;SDS011;13329;48.402;11.718;2023-04-09T01:44:00;23.58;;;8.80;;
25391;SDS011;13329;48.402;11.718;2023-04-09T01:46:27;19.17;;;8.38;;
25391;SDS011;13329;48.402;11.718;2023-04-09T01:48:52;17.23;;;8.77;;
25391;SDS011;13329;48.402;11.718;2023-04-09T01:51:19;18.55;;;8.18;;
25391;SDS011;13329;48.402;11.718;2023-04-09T01:53:44;16.90;;;7.70;;
25391;SDS011;13329;48.402;11.718;2023-04-09T01:56:09;17.10;;;8.53;;
25391;SDS011;13329;48.402;11.718;2023-04-09T01:58:34;17.88;;;8.52;;
25391;SDS011;13329;48.402;11.718;2023-04-09T02:01:11;15.53;;;7.73;;
25391;SDS011;13329;48.402;11.718;2023-04-09T02:03:43;17.05;;;8.00;;
25391;SDS011;13329;48.402;11.718;2023-04-09T02:08:35;13.68;;;6.28;;
25391;SDS011;13329;48.402;11.718;2023-04-09T02:11:01;17.52;;;7.85;;
25391;SDS011;13329;48.402;11.718;2023-04-09T02:13:28;18.98;;;8.85;;
25391;SDS011;13329;48.402;11.718;2023-04-09T02:15:54;20.52;;;8.52;;
25391;SDS011;13329;48.402;11.718;2023-04-09T02:18:23;18.80;;;9.07;;
25391;SDS011;13329;48.402;11.718;2023-04-09T02:20:49;19.23;;;7.82;;
25391;SDS011;13329;48.402;11.718;2023-04-09T02:23:15;22.98;;;9.52;;
25391;SDS011;13329;48.402;11.718;2023-04-09T02:25:40;19.88;;;9.30;;
25391;SDS011;13329;48.402;11.718;2023-04-09T02:28:05;21.00;;;9.40;;
25391;SDS011;13329;48.402;11.718;2023-04-09T02:30:30;19.37;;;9.27;;
25391;SDS011;13329;48.402;11.718;2023-04-09T02:32:55;22.13;;;9.60;;
25391;SDS011;13329;48.402;11.718;2023-04-09T02:35:21;21.77;;;9.63;;
25391;SDS011;13329;48.402;11.718;2023-04-09T02:37:46;21.93;;;8.83;;
25391;SDS011;13329;48.402;11.718;2023-04-09T02:40:11;21.57;;;9.80;;
25391;SDS011;13329;48.402;11.718;2023-04-09T02:42:36;24.07;;;9.87;;
25391;SDS011;13329;48.402;11.718;2023-04-09T02:45:01;19.10;;;9.83;;
25391;SDS011;13329;48.402;11.718;2023-04-09T02:47:27;20.77;;;10.13;;
25391;SDS011;13329;48.402;11.718;2023-04-09T02:49:54;19.67;;;9.32;;
25391;SDS011;13329;48.402;11.718;2023-04-09T02:52:19;21.50;;;9.50;;
25391;SDS011;13329;48.402;11.718;2023-04-09T02:54:48;21.25;;;9.38;;
25391;SDS011;13329;48.402;11.718;2023-04-09T02:57:13;19.60;;;9.00;;
25391;SDS011;13329;48.402;11.718;2023-04-09T02:59:38;18.83;;;8.13;;
25391;SDS011;13329;48.402;11.718;2023-04-09T03:02:04;21.00;;;8.75;;
25391;SDS011;13329;48.402;11.718;2023-04-09T03:04:29;27.02;;;8.98;;
25391;SDS011;13329;48.402;11.718;2023-04-09T03:06:55;21.53;;;9.10;;
25391;SDS011;13329;48.402;11.718;2023-04-09T03:09:20;18.43;;;8.47;;
25391;SDS011;13329;48.402;11.718;2023-04-09T03:11:45;26.10;;;9.32;;
25391;SDS011;13329;48.402;11.718;2023-04-09T03:14:10;20.23;;;9.13;;
25391;SDS011;13329;48.402;11.718;2023-04-09T03:16:35;24.23;;;9.37;;
25391;SDS011;13329;48.402;11.718;2023-04-09T03:19:00;20.80;;;9.07;;
25391;SDS011;13329;48.402;11.718;2023-04-09T03:21:26;23.13;;;9.53;;
25391;SDS011;13329;48.402;11.718;2023-04-09T03:23:51;18.50;;;9.10;;
25391;SDS011;13329;48.402;11.718;2023-04-09T03:26:16;20.30;;;8.40;;
25391;SDS011;13329;48.402;11.718;2023-04-09T03:28:41;19.47;;;9.80;;
25391;SDS011;13329;48.402;11.718;2023-04-09T03:31:06;23.03;;;9.47;;
25391;SDS011;13329;48.402;11.718;2023-04-09T03:33:32;21.67;;;9.77;;
25391;SDS011;13329;48.402;11.718;2023-04-09T03:35:57;20.65;;;9.07;;
25391;SDS011;13329;48.402;11.718;2023-04-09T03:38:22;20.47;;;9.30;;
25391;SDS011;13329;48.402;11.718;2023-04-09T03:40:47;22.25;;;9.55;;
25391;SDS011;13329;48.402;11.718;2023-04-09T03:43:12;24.08;;;8.88;;
25391;SDS011;13329;48.402;11.718;2023-04-09T03:45:37;18.20;;;8.07;;
25391;SDS011;13329;48.402;11.718;2023-04-09T03:48:03;15.80;;;8.67;;
25391;SDS011;13329;48.402;11.718;2023-04-09T03:50:28;18.43;;;8.13;;
25391;SDS011;13329;48.402;11.718;2023-04-09T03:52:53;21.80;;;9.73;;
25391;SDS011;13329;48.402;11.718;2023-04-09T03:55:18;15.33;;;7.93;;
25391;SDS011;13329;48.402;11.718;2023-04-09T03:57:43;18.58;;;7.90;;
25391;SDS011;13329;48.402;11.718;2023-04-09T04:00:09;19.00;;;8.23;;
25391;SDS011;13329;48.402;11.718;2023-04-09T04:02:34;18.35;;;9.13;;
25391;SDS011;13329;48.402;11.718;2023-04-09T04:04:59;18.40;;;8.32;;
25391;SDS011;13329;48.402;11.718;2023-04-09T04:07:24;24.25;;;8.13;;
25391;SDS011;13329;48.402;11.718;2023-04-09T04:09:50;18.80;;;8.57;;
25391;SDS011;13329;48.402;11.718;2023-04-09T04:12:15;18.63;;;8.75;;
25391;SDS011;13329;48.402;11.718;2023-04-09T04:14:40;18.73;;;8.13;;
25391;SDS011;13329;48.402;11.718;2023-04-09T04:17:05;20.23;;;8.30;;
25391;SDS011;13329;48.402;11.718;2023-04-09T04:19:31;16.53;;;7.97;;
25391;SDS011;13329;48.402;11.718;2023-04-09T04:21:56;21.60;;;8.68;;
25391;SDS011;13329;48.402;11.718;2023-04-09T04:24:21;21.53;;;8.93;;
25391;SDS011;13329;48.402;11.718;2023-04-09T04:26:46;20.30;;;8.03;;
25391;SDS011;13329;48.402;11.718;2023-04-09T04:29:11;18.17;;;7.60;;
25391;SDS011;13329;48.402;11.718;2023-04-09T04:31:37;18.93;;;8.73;;
25391;SDS011;13329;48.402;11.718;2023-04-09T04:34:02;19.67;;;8.10;;
25391;SDS011;13329;48.402;11.718;2023-04-09T04:36:27;17.52;;;7.57;;
25391;SDS011;13329;48.402;11.718;2023-04-09T04:38:52;22.60;;;8.07;;
25391;SDS011;13329;48.402;11.718;2023-04-09T04:41:17;21.27;;;8.47;;
25391;SDS011;13329;48.402;11.718;2023-04-09T04:43:42;16.83;;;7.70;;
25391;SDS011;13329;48.402;11.718;2023-04-09T04:46:08;17.90;;;7.57;;
25391;SDS011;13329;48.402;11.718;2023-04-09T04:48:33;18.40;;;8.00;;
25391;SDS011;13329;48.402;11.718;2023-04-09T04:50:58;18.73;;;7.83;;
25391;SDS011;13329;48.402;11.718;2023-04-09T04:53:24;19.30;;;7.70;;
25391;SDS011;13329;48.402;11.718;2023-04-09T04:55:49;18.67;;;8.15;;
25391;SDS011;13329;48.402;11.718;2023-04-09T04:58:15;18.57;;;8.10;;
25391;SDS011;13329;48.402;11.718;2023-04-09T05:00:40;17.83;;;7.68;;
25391;SDS011;13329;48.402;11.718;2023-04-09T05:03:05;22.03;;;8.00;;
25391;SDS011;13329;48.402;11.718;2023-04-09T05:05:30;19.03;;;8.40;;
25391;SDS011;13329;48.402;11.718;2023-04-09T05:07:55;16.33;;;7.80;;
25391;SDS011;13329;48.402;11.718;2023-04-09T05:10:21;19.33;;;8.70;;
25391;SDS011;13329;48.402;11.718;2023-04-09T05:12:46;19.77;;;8.00;;
25391;SDS011;13329;48.402;11.718;2023-04-09T05:15:11;17.63;;;6.97;;
25391;SDS011;13329;48.402;11.718;2023-04-09T05:17:36;16.00;;;7.15;;
25391;SDS011;13329;48.402;11.718;2023-04-09T05:20:02;16.13;;;7.47;;
25391;SDS011;13329;48.402;11.718;2023-04-09T05:22:27;14.07;;;6.77;;
25391;SDS011;13329;48.402;11.718;2023-04-09T05:24:52;19.17;;;7.63;;
25391;SDS011;13329;48.402;11.718;2023-04-09T05:27:17;16.85;;;7.20;;
25391;SDS011;13329;48.402;11.718;2023-04-09T05:29:43;20.60;;;7.40;;
25391;SDS011;13329;48.402;11.718;2023-04-09T05:32:08;18.30;;;7.33;;
25391;SDS011;13329;48.402;11.718;2023-04-09T05:34:33;22.43;;;7.97;;
25391;SDS011;13329;48.402;11.718;2023-04-09T05:36:59;15.40;;;7.32;;
25391;SDS011;13329;48.402;11.718;2023-04-09T05:39:24;19.43;;;8.07;;
25391;SDS011;13329;48.402;11.718;2023-04-09T05:41:49;20.33;;;7.67;;
25391;SDS011;13329;48.402;11.718;2023-04-09T05:44:16;19.92;;;8.00;;
25391;SDS011;13329;48.402;11.718;2023-04-09T05:46:41;19.20;;;7.10;;
25391;SDS011;13329;48.402;11.718;2023-04-09T05:49:06;16.35;;;7.20;;
25391;SDS011;13329;48.402;11.718;2023-04-09T05:51:31;17.13;;;7.50;;
25391;SDS011;13329;48.402;11.718;2023-04-09T05:53:57;17.10;;;7.13;;
25391;SDS011;13329;48.402;11.718;2023-04-09T05:56:22;16.67;;;7.43;;
25391;SDS011;13329;48.402;11.718;2023-04-09T05:58:47;17.88;;;8.00;;
25391;SDS011;13329;48.402;11.718;2023-04-09T06:01:12;24.63;;;8.95;;
25391;SDS011;13329;48.402;11.718;2023-04-09T06:03:38;17.25;;;7.32;;
25391;SDS011;13329;48.402;11.718;2023-04-09T06:06:03;17.20;;;7.50;;
25391;SDS011;13329;48.402;11.718;2023-04-09T06:08:28;19.90;;;8.90;;
25391;SDS011;13329;48.402;11.718;2023-04-09T06:10:53;17.17;;;7.30;;
25391;SDS011;13329;48.402;11.718;2023-04-09T06:13:18;15.77;;;7.53;;
25391;SDS011;13329;48.402;11.718;2023-04-09T06:15:43;21.40;;;7.87;;
25391;SDS011;13329;48.402;11.718;2023-04-09T06:18:09;18.75;;;8.07;;
25391;SDS011;13329;48.402;11.718;2023-04-09T06:20:34;23.93;;;8.13;;
25391;SDS011;13329;48.402;11.718;2023-04-09T06:22:59;15.57;;;7.20;;
25391;SDS011;13329;48.402;11.718;2023-04-09T06:25:25;19.87;;;8.47;;
25391;SDS011;13329;48.402;11.718;2023-04-09T06:27:50;18.48;;;8.10;;
25391;SDS011;13329;48.402;11.718;2023-04-09T06:30:15;17.08;;;7.80;;
25391;SDS011;13329;48.402;11.718;2023-04-09T06:32:41;17.60;;;8.00;;
25391;SDS011;13329;48.402;11.718;2023-04-09T06:35:06;18.73;;;8.07;;
25391;SDS011;13329;48.402;11.718;2023-04-09T06:37:32;19.25;;;9.00;;
25391;SDS011;13329;48.402;11.718;2023-04-09T06:39:57;20.08;;;8.90;;
25391;SDS011;13329;48.402;11.718;2023-04-09T06:42:22;22.70;;;9.40;;
25391;SDS011;13329;48.402;11.718;2023-04-09T06:44:48;18.50;;;10.30;;
25391;SDS011;13329;48.402;11.718;2023-04-09T06:47:13;21.70;;;9.27;;
25391;SDS011;13329;48.402;11.718;2023-04-09T06:49:38;19.00;;;9.50;;
25391;SDS011;13329;48.402;11.718;2023-04-09T06:52:03;23.53;;;9.90;;
25391;SDS011;13329;48.402;11.718;2023-04-09T06:54:29;21.70;;;9.65;;
25391;SDS011;13329;48.402;11.718;2023-04-09T06:56:54;22.00;;;9.60;;
25391;SDS011;13329;48.402;11.718;2023-04-09T06:59:20;24.02;;;10.38;;
25391;SDS011;13329;48.402;11.718;2023-04-09T07:01:45;20.20;;;9.88;;
25391;SDS011;13329;48.402;11.718;2023-04-09T07:04:11;17.60;;;8.70;;
25391;SDS011;13329;48.402;11.718;2023-04-09T07:06:36;18.57;;;8.60;;
25391;SDS011;13329;48.402;11.718;2023-04-09T07:09:02;20.60;;;9.00;;
25391;SDS011;13329;48.402;11.718;2023-04-09T07:11:27;19.88;;;8.85;;
25391;SDS011;13329;48.402;11.718;2023-04-09T07:13:52;17.70;;;8.50;;
25391;SDS011;13329;48.402;11.718;2023-04-09T07:16:17;17.95;;;8.60;;
25391;SDS011;13329;48.402;11.718;2023-04-09T07:18:43;18.07;;;8.43;;
25391;SDS011;13329;48.402;11.718;2023-04-09T07:21:08;18.43;;;8.23;;
25391;SDS011;13329;48.402;11.718;2023-04-09T07:23:34;16.90;;;8.00;;
25391;SDS011;13329;48.402;11.718;2023-04-09T07:26:00;19.70;;;7.43;;
25391;SDS011;13329;48.402;11.718;2023-04-09T07:28:26;18.45;;;8.10;;
25391;SDS011;13329;48.402;11.718;2023-04-09T07:30:51;14.10;;;7.37;;
25391;SDS011;13329;48.402;11.718;2023-04-09T07:33:17;20.65;;;8.13;;
25391;SDS011;13329;48.402;11.718;2023-04-09T07:35:42;14.80;;;7.77;;
25391;SDS011;13329;48.402;11.718;2023-04-09T07:38:07;15.37;;;7.37;;
25391;SDS011;13329;48.402;11.718;2023-04-09T07:40:33;16.07;;;7.27;;
25391;SDS011;13329;48.402;11.718;2023-04-09T07:42:58;20.33;;;8.25;;
25391;SDS011;13329;48.402;11.718;2023-04-09T07:45:23;18.67;;;7.27;;
25391;SDS011;13329;48.402;11.718;2023-04-09T07:47:48;13.03;;;6.73;;
25391;SDS011;13329;48.402;11.718;2023-04-09T07:50:13;16.50;;;7.00;;
25391;SDS011;13329;48.402;11.718;2023-04-09T07:52:39;16.58;;;7.00;;
25391;SDS011;13329;48.402;11.718;2023-04-09T07:55:05;15.18;;;6.80;;
25391;SDS011;13329;48.402;11.718;2023-04-09T07:57:31;10.85;;;5.97;;
25391;SDS011;13329;48.402;11.718;2023-04-09T07:59:57;12.70;;;7.07;;
25391;SDS011;13329;48.402;11.718;2023-04-09T08:02:22;11.57;;;6.53;;
25391;SDS011;13329;48.402;11.718;2023-04-09T08:04:47;14.02;;;7.55;;
25391;SDS011;13329;48.402;11.718;2023-04-09T08:07:13;11.77;;;6.40;;
25391;SDS011;13329;48.402;11.718;2023-04-09T08:09:38;12.43;;;6.67;;
25391;SDS011;13329;48.402;11.718;2023-04-09T08:12:03;12.70;;;6.50;;
25391;SDS011;13329;48.402;11.718;2023-04-09T08:14:28;13.00;;;6.67;;
25391;SDS011;13329;48.402;11.718;2023-04-09T08:16:53;13.33;;;7.17;;
25391;SDS011;13329;48.402;11.718;2023-04-09T08:19:19;10.98;;;6.28;;
25391;SDS011;13329;48.402;11.718;2023-04-09T08:21:44;13.03;;;5.83;;
25391;SDS011;13329;48.402;11.718;2023-04-09T08:24:12;11.77;;;6.50;;
25391;SDS011;13329;48.402;11.718;2023-04-09T08:26:38;10.40;;;5.50;;
25391;SDS011;13329;48.402;11.718;2023-04-09T08:29:03;9.75;;;5.85;;
25391;SDS011;13329;48.402;11.718;2023-04-09T08:31:28;14.45;;;6.70;;
25391;SDS011;13329;48.402;11.718;2023-04-09T08:33:53;12.57;;;6.68;;
25391;SDS011;13329;48.402;11.718;2023-04-09T08:36:19;10.87;;;5.90;;
25391;SDS011;13329;48.402;11.718;2023-04-09T08:38:44;12.77;;;5.88;;
25391;SDS011;13329;48.402;11.718;2023-04-09T08:41:20;13.35;;;6.50;;
25391;SDS011;13329;48.402;11.718;2023-04-09T08:43:46;7.30;;;4.43;;
25391;SDS011;13329;48.402;11.718;2023-04-09T08:46:13;10.40;;;6.18;;
25391;SDS011;13329;48.402;11.718;2023-04-09T08:48:40;12.23;;;6.32;;
25391;SDS011;13329;48.402;11.718;2023-04-09T08:51:06;12.52;;;6.93;;
25391;SDS011;13329;48.402;11.718;2023-04-09T08:53:32;10.57;;;5.65;;
25391;SDS011;13329;48.402;11.718;2023-04-09T08:55:57;8.55;;;5.28;;
25391;SDS011;13329;48.402;11.718;2023-04-09T08:58:23;10.27;;;5.85;;
25391;SDS011;13329;48.402;11.718;2023-04-09T09:00:49;12.97;;;6.67;;
25391;SDS011;13329;48.402;11.718;2023-04-09T09:03:14;12.10;;;7.00;;
25391;SDS011;13329;48.402;11.718;2023-04-09T09:05:40;11.23;;;5.90;;
25391;SDS011;13329;48.402;11.718;2023-04-09T09:08:06;11.32;;;6.18;;
25391;SDS011;13329;48.402;11.718;2023-04-09T09:13:14;12.95;;;7.00;;
25391;SDS011;13329;48.402;11.718;2023-04-09T09:15:39;11.27;;;6.63;;
25391;SDS011;13329;48.402;11.718;2023-04-09T09:18:05;15.37;;;7.03;;
25391;SDS011;13329;48.402;11.718;2023-04-09T09:20:31;11.82;;;6.70;;
25391;SDS011;13329;48.402;11.718;2023-04-09T09:22:56;14.45;;;7.10;;
25391;SDS011;13329;48.402;11.718;2023-04-09T09:25:21;16.27;;;7.32;;
25391;SDS011;13329;48.402;11.718;2023-04-09T09:27:48;13.00;;;7.05;;
25391;SDS011;13329;48.402;11.718;2023-04-09T09:30:24;11.48;;;6.03;;
25391;SDS011;13329;48.402;11.718;2023-04-09T09:32:53;13.60;;;6.85;;
25391;SDS011;13329;48.402;11.718;2023-04-09T09:35:19;13.15;;;7.13;;
25391;SDS011;13329;48.402;11.718;2023-04-09T09:37:44;15.55;;;8.02;;
25391;SDS011;13329;48.402;11.718;2023-04-09T09:40:09;12.70;;;6.70;;
25391;SDS011;13329;48.402;11.718;2023-04-09T09:42:35;15.10;;;6.78;;
25391;SDS011;13329;48.402;11.718;2023-04-09T09:45:00;12.15;;;7.18;;
25391;SDS011;13329;48.402;11.718;2023-04-09T09:47:28;14.20;;;7.65;;
25391;SDS011;13329;48.402;11.718;2023-04-09T09:49:53;15.55;;;7.78;;
25391;SDS011;13329;48.402;11.718;2023-04-09T09:52:20;16.02;;;7.60;;
25391;SDS011;13329;48.402;11.718;2023-04-09T09:54:49;14.05;;;7.18;;
25391;SDS011;13329;48.402;11.718;2023-04-09T09:57:16;13.48;;;7.18;;
25391;SDS011;13329;48.402;11.718;2023-04-09T09:59:46;14.73;;;7.50;;
25391;SDS011;13329;48.402;11.718;2023-04-09T10:02:18;15.68;;;7.57;;
25391;SDS011;13329;48.402;11.718;2023-04-09T10:04:44;16.02;;;7.85;;
25391;SDS011;13329;48.402;11.718;2023-04-09T10:07:10;16.55;;;7.70;;
25391;SDS011;13329;48.402;11.718;2023-04-09T10:09:36;11.10;;;6.78;;
25391;SDS011;13329;48.402;11.718;2023-04-09T10:12:02;14.05;;;8.02;;
25391;SDS011;13329;48.402;11.718;2023-04-09T10:14:28;14.82;;;7.68;;
25391;SDS011;13329;48.402;11.718;2023-04-09T10:16:54;14.30;;;7.37;;
25391;SDS011;13329;48.402;11.718;2023-04-09T10:19:19;14.80;;;7.30;;
25391;SDS011;13329;48.402;11.718;2023-04-09T10:24:11;16.00;;;7.35;;
25391;SDS011;13329;48.402;11.718;2023-04-09T10:26:40;15.52;;;7.85;;
25391;SDS011;13329;48.402;11.718;2023-04-09T10:29:10;16.20;;;7.20;;
25391;SDS011;13329;48.402;11.718;2023-04-09T10:31:50;15.82;;;8.07;;
25391;SDS011;13329;48.402;11.718;2023-04-09T10:34:16;16.05;;;8.35;;
25391;SDS011;13329;48.402;11.718;2023-04-09T10:36:43;16.83;;;8.07;;
25391;SDS011;13329;48.402;11.718;2023-04-09T10:39:12;15.98;;;7.85;;
25391;SDS011;13329;48.402;11.718;2023-04-09T10:41:40;14.32;;;7.22;;
25391;SDS011;13329;48.402;11.718;2023-04-09T10:44:18;15.25;;;8.32;;
25391;SDS011;13329;48.402;11.718;2023-04-09T10:46:43;17.55;;;8.07;;
25391;SDS011;13329;48.402;11.718;2023-04-09T10:49:10;17.90;;;8.40;;
25391;SDS011;13329;48.402;11.718;2023-04-09T10:51:37;14.95;;;7.57;;
25391;SDS011;13329;48.402;11.718;2023-04-09T10:54:05;17.50;;;7.30;;
25391;SDS011;13329;48.402;11.718;2023-04-09T10:56:31;13.95;;;7.18;;
25391;SDS011;13329;48.402;11.718;2023-04-09T10:58:56;14.45;;;7.43;;
25391;SDS011;13329;48.402;11.718;2023-04-09T11:01:22;14.13;;;7.67;;
25391;SDS011;13329;48.402;11.718;2023-04-09T11:04:02;16.10;;;7.97;;
25391;SDS011;13329;48.402;11.718;2023-04-09T11:06:30;18.27;;;8.13;;
25391;SDS011;13329;48.402;11.718;2023-04-09T11:09:00;16.98;;;7.38;;
25391;SDS011;13329;48.402;11.718;2023-04-09T11:11:26;12.70;;;6.68;;
25391;SDS011;13329;48.402;11.718;2023-04-09T11:13:56;14.35;;;7.15;;
25391;SDS011;13329;48.402;11.718;2023-04-09T11:16:22;13.65;;;7.10;;
25391;SDS011;13329;48.402;11.718;2023-04-09T11:18:47;13.00;;;7.13;;
25391;SDS011;13329;48.402;11.718;2023-04-09T11:21:12;12.98;;;6.88;;
25391;SDS011;13329;48.402;11.718;2023-04-09T11:23:37;13.20;;;6.83;;
25391;SDS011;13329;48.402;11.718;2023-04-09T11:26:03;13.00;;;6.80;;
25391;SDS011;13329;48.402;11.718;2023-04-09T11:28:29;14.55;;;7.05;;
25391;SDS011;13329;48.402;11.718;2023-04-09T11:30:54;10.98;;;6.28;;
25391;SDS011;13329;48.402;11.718;2023-04-09T11:33:19;11.23;;;6.20;;
25391;SDS011;13329;48.402;11.718;2023-04-09T11:35:45;13.68;;;6.70;;
25391;SDS011;13329;48.402;11.718;2023-04-09T11:38:10;12.40;;;7.13;;
25391;SDS011;13329;48.402;11.718;2023-04-09T11:40:36;13.60;;;6.63;;
25391;SDS011;13329;48.402;11.718;2023-04-09T11:43:07;14.48;;;6.88;;
25391;SDS011;13329;48.402;11.718;2023-04-09T11:45:32;13.40;;;6.93;;
25391;SDS011;13329;48.402;11.718;2023-04-09T11:47:57;15.40;;;7.00;;
25391;SDS011;13329;48.402;11.718;2023-04-09T11:50:22;14.25;;;7.25;;
25391;SDS011;13329;48.402;11.718;2023-04-09T11:52:48;15.45;;;8.15;;
25391;SDS011;13329;48.402;11.718;2023-04-09T11:55:24;13.77;;;7.35;;
25391;SDS011;13329;48.402;11.718;2023-04-09T11:57:50;15.48;;;6.75;;
25391;SDS011;13329;48.402;11.718;2023-04-09T12:00:16;14.63;;;7.10;;
25391;SDS011;13329;48.402;11.718;2023-04-09T12:02:44;14.70;;;7.00;;
25391;SDS011;13329;48.402;11.718;2023-04-09T12:05:22;15.85;;;7.90;;
25391;SDS011;13329;48.402;11.718;2023-04-09T12:07:48;17.25;;;7.55;;
25391;SDS011;13329;48.402;11.718;2023-04-09T12:10:14;14.00;;;6.43;;
25391;SDS011;13329;48.402;11.718;2023-04-09T12:12:43;13.57;;;6.95;;
25391;SDS011;13329;48.402;11.718;2023-04-09T12:15:10;13.07;;;6.50;;
25391;SDS011;13329;48.402;11.718;2023-04-09T12:17:35;12.48;;;6.35;;
25391;SDS011;13329;48.402;11.718;2023-04-09T12:20:01;11.47;;;6.30;;
25391;SDS011;13329;48.402;11.718;2023-04-09T12:22:26;14.83;;;7.70;;
25391;SDS011;13329;48.402;11.718;2023-04-09T12:24:51;13.13;;;7.10;;
25391;SDS011;13329;48.402;11.718;2023-04-09T12:27:16;10.63;;;6.30;;
25391;SDS011;13329;48.402;11.718;2023-04-09T12:29:41;13.00;;;6.10;;
25391;SDS011;13329;48.402;11.718;2023-04-09T12:32:06;12.17;;;6.33;;
25391;SDS011;13329;48.402;11.718;2023-04-09T12:34:32;10.07;;;5.78;;
25391;SDS011;13329;48.402;11.718;2023-04-09T12:36:58;12.37;;;7.27;;
25391;SDS011;13329;48.402;11.718;2023-04-09T12:39:23;13.60;;;6.85;;
25391;SDS011;13329;48.402;11.718;2023-04-09T12:41:48;11.77;;;6.63;;
25391;SDS011;13329;48.402;11.718;2023-04-09T12:44:13;12.33;;;6.53;;
25391;SDS011;13329;48.402;11.718;2023-04-09T12:46:39;12.18;;;6.95;;
25391;SDS011;13329;48.402;11.718;2023-04-09T12:49:04;14.67;;;7.73;;
25391;SDS011;13329;48.402;11.718;2023-04-09T12:51:30;14.32;;;7.35;;
25391;SDS011;13329;48.402;11.718;2023-04-09T12:53:55;14.73;;;7.73;;
25391;SDS011;13329;48.402;11.718;2023-04-09T12:56:20;11.63;;;6.97;;
25391;SDS011;13329;48.402;11.718;2023-04-09T12:58:45;11.30;;;7.17;;
25391;SDS011;13329;48.402;11.718;2023-04-09T13:01:10;13.30;;;6.73;;
25391;SDS011;13329;48.402;11.718;2023-04-09T13:03:36;12.97;;;6.13;;
25391;SDS011;13329;48.402;11.718;2023-04-09T13:06:01;15.37;;;8.13;;
25391;SDS011;13329;48.402;11.718;2023-04-09T13:08:26;13.00;;;6.38;;
25391;SDS011;13329;48.402;11.718;2023-04-09T13:10:51;6.73;;;4.47;;
25391;SDS011;13329;48.402;11.718;2023-04-09T13:13:16;9.65;;;5.57;;
25391;SDS011;13329;48.402;11.718;2023-04-09T13:15:41;10.63;;;6.23;;
25391;SDS011;13329;48.402;11.718;2023-04-09T13:18:07;11.88;;;7.03;;
25391;SDS011;13329;48.402;11.718;2023-04-09T13:20:32;12.40;;;7.13;;
25391;SDS011;13329;48.402;11.718;2023-04-09T13:22:57;12.50;;;6.30;;
25391;SDS011;13329;48.402;11.718;2023-04-09T13:25:23;11.23;;;5.67;;
25391;SDS011;13329;48.402;11.718;2023-04-09T13:27:48;10.17;;;5.97;;
25391;SDS011;13329;48.402;11.718;2023-04-09T13:30:13;9.07;;;5.03;;
25391;SDS011;13329;48.402;11.718;2023-04-09T13:32:38;9.20;;;5.13;;
25391;SDS011;13329;48.402;11.718;2023-04-09T13:35:04;8.57;;;5.17;;
25391;SDS011;13329;48.402;11.718;2023-04-09T13:37:30;11.50;;;5.65;;
25391;SDS011;13329;48.402;11.718;2023-04-09T13:39:55;11.20;;;5.70;;
25391;SDS011;13329;48.402;11.718;2023-04-09T13:42:20;10.73;;;5.67;;
25391;SDS011;13329;48.402;11.718;2023-04-09T13:44:45;11.83;;;6.10;;
25391;SDS011;13329;48.402;11.718;2023-04-09T13:47:11;11.13;;;5.20;;
25391;SDS011;13329;48.402;11.718;2023-04-09T13:49:40;8.27;;;4.57;;
25391;SDS011;13329;48.402;11.718;2023-04-09T13:52:05;8.88;;;5.05;;
25391;SDS011;13329;48.402;11.718;2023-04-09T13:54:31;8.27;;;4.78;;
25391;SDS011;13329;48.402;11.718;2023-04-09T13:56:56;8.43;;;5.25;;
25391;SDS011;13329;48.402;11.718;2023-04-09T13:59:21;8.63;;;4.77;;
25391;SDS011;13329;48.402;11.718;2023-04-09T14:01:46;8.10;;;4.87;;
25391;SDS011;13329;48.402;11.718;2023-04-09T14:04:12;8.70;;;5.20;;
25391;SDS011;13329;48.402;11.718;2023-04-09T14:06:37;9.07;;;5.30;;
25391;SDS011;13329;48.402;11.718;2023-04-09T14:09:02;11.00;;;5.60;;
25391;SDS011;13329;48.402;11.718;2023-04-09T14:11:27;11.15;;;6.07;;
25391;SDS011;13329;48.402;11.718;2023-04-09T14:13:53;11.27;;;5.70;;
25391;SDS011;13329;48.402;11.718;2023-04-09T14:16:18;10.80;;;6.05;;
25391;SDS011;13329;48.402;11.718;2023-04-09T14:18:43;11.93;;;6.50;;
25391;SDS011;13329;48.402;11.718;2023-04-09T14:21:08;10.63;;;6.63;;
25391;SDS011;13329;48.402;11.718;2023-04-09T14:23:34;13.73;;;7.63;;
25391;SDS011;13329;48.402;11.718;2023-04-09T14:25:59;12.70;;;6.60;;
25391;SDS011;13329;48.402;11.718;2023-04-09T14:28:24;12.75;;;6.88;;
25391;SDS011;13329;48.402;11.718;2023-04-09T14:30:50;11.32;;;5.78;;